sensor_id;sensor_type;location;lat;lon;timestamp;temperature;humidity
14014;DHT22;49110;52.584;13.408;2022-12-13T00:00:41;1.30;98.10
14014;DHT22;49110;52.584;13.408;2022-12-13T00:01:41;1.20;97.90
14014;DHT22;49110;52.584;13.408;2022-12-13T00:02:44;1.10;97.90
14014;DHT22;49110;52.584;13.408;2022-12-13T00:03:45;1.00;98.10
14014;DHT22;49110;52.584;13.408;2022-12-13T00:04:45;1.10;98.70
14014;DHT22;49110;52.584;13.408;2022-12-13T00:05:46;1.10;98.40
14014;DHT22;49110;52.584;13.408;2022-12-13T00:06:47;1.10;98.40
14014;DHT22;49110;52.584;13.408;2022-12-13T00:07:47;1.10;98.30
14014;DHT22;49110;52.584;13.408;2022-12-13T00:08:48;1.10;98.20
14014;DHT22;49110;52.584;13.408;2022-12-13T00:09:48;1.10;98.40
14014;DHT22;49110;52.584;13.408;2022-12-13T00:10:58;1.10;98.60
14014;DHT22;49110;52.584;13.408;2022-12-13T00:11:59;1.10;98.40
14014;DHT22;49110;52.584;13.408;2022-12-13T00:12:59;1.10;98.50
14014;DHT22;49110;52.584;13.408;2022-12-13T00:14:00;1.20;98.60
14014;DHT22;49110;52.584;13.408;2022-12-13T00:15:01;1.20;98.60
14014;DHT22;49110;52.584;13.408;2022-12-13T00:16:05;1.20;98.50
14014;DHT22;49110;52.584;13.408;2022-12-13T00:17:06;1.20;98.50
14014;DHT22;49110;52.584;13.408;2022-12-13T00:18:06;1.20;98.60
14014;DHT22;49110;52.584;13.408;2022-12-13T00:19:07;1.20;98.70
14014;DHT22;49110;52.584;13.408;2022-12-13T00:20:07;1.20;98.70
14014;DHT22;49110;52.584;13.408;2022-12-13T00:21:12;1.20;98.60
14014;DHT22;49110;52.584;13.408;2022-12-13T00:22:14;1.10;98.70
14014;DHT22;49110;52.584;13.408;2022-12-13T00:23:16;1.10;98.80
14014;DHT22;49110;52.584;13.408;2022-12-13T00:24:16;1.10;98.80
14014;DHT22;49110;52.584;13.408;2022-12-13T00:25:17;1.20;98.90
14014;DHT22;49110;52.584;13.408;2022-12-13T00:26:25;1.20;98.90
14014;DHT22;49110;52.584;13.408;2022-12-13T00:27:26;1.20;99.00
14014;DHT22;49110;52.584;13.408;2022-12-13T00:28:26;1.30;99.00
14014;DHT22;49110;52.584;13.408;2022-12-13T00:29:27;1.20;98.90
14014;DHT22;49110;52.584;13.408;2022-12-13T00:30:27;1.20;98.70
14014;DHT22;49110;52.584;13.408;2022-12-13T00:31:30;1.20;98.70
14014;DHT22;49110;52.584;13.408;2022-12-13T00:32:31;1.20;98.90
14014;DHT22;49110;52.584;13.408;2022-12-13T00:33:32;1.20;99.00
14014;DHT22;49110;52.584;13.408;2022-12-13T00:34:32;1.30;98.90
14014;DHT22;49110;52.584;13.408;2022-12-13T00:35:39;1.30;98.90
14014;DHT22;49110;52.584;13.408;2022-12-13T00:36:39;1.30;98.80
14014;DHT22;49110;52.584;13.408;2022-12-13T00:37:40;1.30;98.80
14014;DHT22;49110;52.584;13.408;2022-12-13T00:38:40;1.30;98.80
14014;DHT22;49110;52.584;13.408;2022-12-13T00:39:40;1.20;98.70
14014;DHT22;49110;52.584;13.408;2022-12-13T00:40:41;1.20;98.70
14014;DHT22;49110;52.584;13.408;2022-12-13T00:41:42;1.10;98.70
14014;DHT22;49110;52.584;13.408;2022-12-13T00:42:43;1.20;98.90
14014;DHT22;49110;52.584;13.408;2022-12-13T00:43:44;1.10;98.80
14014;DHT22;49110;52.584;13.408;2022-12-13T00:44:44;1.10;98.90
14014;DHT22;49110;52.584;13.408;2022-12-13T00:45:45;1.10;98.90
14014;DHT22;49110;52.584;13.408;2022-12-13T00:46:45;1.20;98.90
14014;DHT22;49110;52.584;13.408;2022-12-13T00:47:46;1.20;98.90
14014;DHT22;49110;52.584;13.408;2022-12-13T00:48:51;1.20;98.90
14014;DHT22;49110;52.584;13.408;2022-12-13T00:49:52;1.30;98.80
14014;DHT22;49110;52.584;13.408;2022-12-13T00:50:52;1.30;98.80
14014;DHT22;49110;52.584;13.408;2022-12-13T00:51:53;1.40;98.80
14014;DHT22;49110;52.584;13.408;2022-12-13T00:52:54;1.40;98.50
14014;DHT22;49110;52.584;13.408;2022-12-13T00:53:54;1.30;98.20
14014;DHT22;49110;52.584;13.408;2022-12-13T00:54:55;1.30;98.40
14014;DHT22;49110;52.584;13.408;2022-12-13T00:55:56;1.30;98.50
14014;DHT22;49110;52.584;13.408;2022-12-13T00:56:56;1.20;98.20
14014;DHT22;49110;52.584;13.408;2022-12-13T00:57:57;1.10;98.20
14014;DHT22;49110;52.584;13.408;2022-12-13T00:58:57;1.00;98.40
14014;DHT22;49110;52.584;13.408;2022-12-13T00:59:58;1.00;98.60
14014;DHT22;49110;52.584;13.408;2022-12-13T01:01:07;1.00;98.60
14014;DHT22;49110;52.584;13.408;2022-12-13T01:02:08;1.10;98.70
14014;DHT22;49110;52.584;13.408;2022-12-13T01:03:08;1.00;98.50
14014;DHT22;49110;52.584;13.408;2022-12-13T01:04:19;1.00;98.60
14014;DHT22;49110;52.584;13.408;2022-12-13T01:05:20;1.00;98.50
14014;DHT22;49110;52.584;13.408;2022-12-13T01:06:32;1.00;98.40
14014;DHT22;49110;52.584;13.408;2022-12-13T01:07:35;1.00;98.40
14014;DHT22;49110;52.584;13.408;2022-12-13T01:08:36;1.00;98.70
14014;DHT22;49110;52.584;13.408;2022-12-13T01:09:37;1.00;98.40
14014;DHT22;49110;52.584;13.408;2022-12-13T01:10:46;1.00;98.30
14014;DHT22;49110;52.584;13.408;2022-12-13T01:11:47;1.00;98.60
14014;DHT22;49110;52.584;13.408;2022-12-13T01:12:48;1.10;98.70
14014;DHT22;49110;52.584;13.408;2022-12-13T01:13:48;1.10;98.70
14014;DHT22;49110;52.584;13.408;2022-12-13T01:14:49;1.20;98.70
14014;DHT22;49110;52.584;13.408;2022-12-13T01:15:49;1.20;98.20
14014;DHT22;49110;52.584;13.408;2022-12-13T01:16:50;1.10;97.90
14014;DHT22;49110;52.584;13.408;2022-12-13T01:17:51;1.10;97.70
14014;DHT22;49110;52.584;13.408;2022-12-13T01:18:51;1.00;97.80
14014;DHT22;49110;52.584;13.408;2022-12-13T01:19:52;1.00;97.70
14014;DHT22;49110;52.584;13.408;2022-12-13T01:21:03;1.00;97.80
14014;DHT22;49110;52.584;13.408;2022-12-13T01:22:05;1.00;97.90
14014;DHT22;49110;52.584;13.408;2022-12-13T01:23:06;1.00;97.90
14014;DHT22;49110;52.584;13.408;2022-12-13T01:24:07;1.10;97.70
14014;DHT22;49110;52.584;13.408;2022-12-13T01:25:07;1.00;97.70
14014;DHT22;49110;52.584;13.408;2022-12-13T01:26:11;1.10;97.80
14014;DHT22;49110;52.584;13.408;2022-12-13T01:27:11;1.00;97.30
14014;DHT22;49110;52.584;13.408;2022-12-13T01:28:12;1.10;97.20
14014;DHT22;49110;52.584;13.408;2022-12-13T01:29:12;1.10;97.30
14014;DHT22;49110;52.584;13.408;2022-12-13T01:30:13;1.10;97.10
14014;DHT22;49110;52.584;13.408;2022-12-13T01:31:17;1.10;97.00
14014;DHT22;49110;52.584;13.408;2022-12-13T01:32:17;1.10;96.90
14014;DHT22;49110;52.584;13.408;2022-12-13T01:33:18;1.10;96.90
14014;DHT22;49110;52.584;13.408;2022-12-13T01:34:20;1.10;96.50
14014;DHT22;49110;52.584;13.408;2022-12-13T01:35:21;1.10;96.70
14014;DHT22;49110;52.584;13.408;2022-12-13T01:36:22;1.10;96.80
14014;DHT22;49110;52.584;13.408;2022-12-13T01:37:22;1.10;96.70
14014;DHT22;49110;52.584;13.408;2022-12-13T01:38:23;1.10;96.70
14014;DHT22;49110;52.584;13.408;2022-12-13T01:39:23;1.10;96.50
14014;DHT22;49110;52.584;13.408;2022-12-13T01:40:24;1.10;96.70
14014;DHT22;49110;52.584;13.408;2022-12-13T01:41:26;1.10;96.60
14014;DHT22;49110;52.584;13.408;2022-12-13T01:42:27;1.20;96.80
14014;DHT22;49110;52.584;13.408;2022-12-13T01:43:49;1.20;96.80
14014;DHT22;49110;52.584;13.408;2022-12-13T01:45:55;1.20;96.20
14014;DHT22;49110;52.584;13.408;2022-12-13T01:46:56;1.20;96.30
14014;DHT22;49110;52.584;13.408;2022-12-13T01:48:15;1.20;96.30
14014;DHT22;49110;52.584;13.408;2022-12-13T01:49:18;1.20;96.30
14014;DHT22;49110;52.584;13.408;2022-12-13T01:50:27;1.20;96.40
14014;DHT22;49110;52.584;13.408;2022-12-13T01:51:33;1.20;96.60
14014;DHT22;49110;52.584;13.408;2022-12-13T01:52:35;1.20;96.20
14014;DHT22;49110;52.584;13.408;2022-12-13T01:53:38;1.20;96.20
14014;DHT22;49110;52.584;13.408;2022-12-13T01:54:44;1.20;96.40
14014;DHT22;49110;52.584;13.408;2022-12-13T01:55:50;1.20;96.50
14014;DHT22;49110;52.584;13.408;2022-12-13T01:56:53;1.30;96.60
14014;DHT22;49110;52.584;13.408;2022-12-13T01:57:57;1.30;96.80
14014;DHT22;49110;52.584;13.408;2022-12-13T01:58:59;1.30;96.70
14014;DHT22;49110;52.584;13.408;2022-12-13T02:00:03;1.30;96.60
14014;DHT22;49110;52.584;13.408;2022-12-13T02:01:04;1.40;97.00
14014;DHT22;49110;52.584;13.408;2022-12-13T02:02:05;1.40;96.80
14014;DHT22;49110;52.584;13.408;2022-12-13T02:03:07;1.40;96.90
14014;DHT22;49110;52.584;13.408;2022-12-13T02:04:07;1.40;96.70
14014;DHT22;49110;52.584;13.408;2022-12-13T02:05:12;1.50;96.80
14014;DHT22;49110;52.584;13.408;2022-12-13T02:06:27;1.50;96.90
14014;DHT22;49110;52.584;13.408;2022-12-13T02:07:31;1.50;96.80
14014;DHT22;49110;52.584;13.408;2022-12-13T02:08:33;1.50;96.80
14014;DHT22;49110;52.584;13.408;2022-12-13T02:09:34;1.50;96.90
14014;DHT22;49110;52.584;13.408;2022-12-13T02:10:35;1.40;96.90
14014;DHT22;49110;52.584;13.408;2022-12-13T02:11:38;1.40;97.00
14014;DHT22;49110;52.584;13.408;2022-12-13T02:12:40;1.40;97.00
14014;DHT22;49110;52.584;13.408;2022-12-13T02:13:41;1.40;97.00
14014;DHT22;49110;52.584;13.408;2022-12-13T02:14:42;1.40;97.10
14014;DHT22;49110;52.584;13.408;2022-12-13T02:16:06;1.40;97.20
14014;DHT22;49110;52.584;13.408;2022-12-13T02:20:39;1.40;97.40
14014;DHT22;49110;52.584;13.408;2022-12-13T02:23:26;1.40;97.60
14014;DHT22;49110;52.584;13.408;2022-12-13T02:26:38;1.50;97.50
14014;DHT22;49110;52.584;13.408;2022-12-13T02:28:03;1.40;97.50
14014;DHT22;49110;52.584;13.408;2022-12-13T02:30:46;1.40;97.50
14014;DHT22;49110;52.584;13.408;2022-12-13T02:32:13;1.50;97.70
14014;DHT22;49110;52.584;13.408;2022-12-13T02:36:19;1.50;97.60
14014;DHT22;49110;52.584;13.408;2022-12-13T02:37:29;1.50;97.60
14014;DHT22;49110;52.584;13.408;2022-12-13T02:39:52;1.50;97.60
14014;DHT22;49110;52.584;13.408;2022-12-13T02:41:04;1.50;97.60
14014;DHT22;49110;52.584;13.408;2022-12-13T02:42:22;1.40;97.60
14014;DHT22;49110;52.584;13.408;2022-12-13T02:43:37;1.50;97.70
14014;DHT22;49110;52.584;13.408;2022-12-13T02:44:44;1.40;97.60
14014;DHT22;49110;52.584;13.408;2022-12-13T02:45:50;1.40;97.60
14014;DHT22;49110;52.584;13.408;2022-12-13T02:46:54;1.40;97.70
14014;DHT22;49110;52.584;13.408;2022-12-13T02:47:59;1.40;97.80
14014;DHT22;49110;52.584;13.408;2022-12-13T02:49:01;1.50;97.70
14014;DHT22;49110;52.584;13.408;2022-12-13T02:50:05;1.50;97.80
14014;DHT22;49110;52.584;13.408;2022-12-13T02:51:09;1.40;97.80
14014;DHT22;49110;52.584;13.408;2022-12-13T02:52:11;1.50;97.80
14014;DHT22;49110;52.584;13.408;2022-12-13T02:53:14;1.50;97.90
14014;DHT22;49110;52.584;13.408;2022-12-13T02:54:15;1.50;97.90
14014;DHT22;49110;52.584;13.408;2022-12-13T02:55:16;1.50;97.80
14014;DHT22;49110;52.584;13.408;2022-12-13T02:56:16;1.50;97.70
14014;DHT22;49110;52.584;13.408;2022-12-13T02:57:32;1.50;97.80
14014;DHT22;49110;52.584;13.408;2022-12-13T02:58:38;1.50;97.70
14014;DHT22;49110;52.584;13.408;2022-12-13T02:59:39;1.40;97.70
14014;DHT22;49110;52.584;13.408;2022-12-13T03:02:36;1.40;97.80
14014;DHT22;49110;52.584;13.408;2022-12-13T03:05:19;1.40;97.90
14014;DHT22;49110;52.584;13.408;2022-12-13T03:08:33;1.40;98.00
14014;DHT22;49110;52.584;13.408;2022-12-13T03:09:57;1.40;98.20
14014;DHT22;49110;52.584;13.408;2022-12-13T03:11:07;1.40;98.10
14014;DHT22;49110;52.584;13.408;2022-12-13T03:13:56;1.40;98.20
14014;DHT22;49110;52.584;13.408;2022-12-13T03:17:32;1.40;98.20
14014;DHT22;49110;52.584;13.408;2022-12-13T03:18:36;1.40;98.20
14014;DHT22;49110;52.584;13.408;2022-12-13T03:19:37;1.40;98.30
14014;DHT22;49110;52.584;13.408;2022-12-13T03:20:38;1.40;98.20
14014;DHT22;49110;52.584;13.408;2022-12-13T03:21:41;1.40;98.20
14014;DHT22;49110;52.584;13.408;2022-12-13T03:22:42;1.40;98.40
14014;DHT22;49110;52.584;13.408;2022-12-13T03:23:42;1.40;98.40
14014;DHT22;49110;52.584;13.408;2022-12-13T03:24:44;1.40;98.50
14014;DHT22;49110;52.584;13.408;2022-12-13T03:25:46;1.30;98.50
14014;DHT22;49110;52.584;13.408;2022-12-13T03:26:49;1.30;98.60
14014;DHT22;49110;52.584;13.408;2022-12-13T03:27:50;1.20;98.60
14014;DHT22;49110;52.584;13.408;2022-12-13T03:28:52;1.20;98.70
14014;DHT22;49110;52.584;13.408;2022-12-13T03:29:52;1.30;98.80
14014;DHT22;49110;52.584;13.408;2022-12-13T03:30:53;1.30;98.80
14014;DHT22;49110;52.584;13.408;2022-12-13T03:31:54;1.30;98.80
14014;DHT22;49110;52.584;13.408;2022-12-13T03:32:54;1.30;98.80
14014;DHT22;49110;52.584;13.408;2022-12-13T03:33:55;1.30;98.80
14014;DHT22;49110;52.584;13.408;2022-12-13T03:34:55;1.20;98.70
14014;DHT22;49110;52.584;13.408;2022-12-13T03:35:56;1.30;99.00
14014;DHT22;49110;52.584;13.408;2022-12-13T03:36:57;1.30;99.10
14014;DHT22;49110;52.584;13.408;2022-12-13T03:37:57;1.30;99.00
14014;DHT22;49110;52.584;13.408;2022-12-13T03:38:58;1.30;99.00
14014;DHT22;49110;52.584;13.408;2022-12-13T03:39:59;1.40;99.00
14014;DHT22;49110;52.584;13.408;2022-12-13T03:41:03;1.50;99.00
14014;DHT22;49110;52.584;13.408;2022-12-13T03:42:05;1.50;99.00
14014;DHT22;49110;52.584;13.408;2022-12-13T03:43:05;1.50;98.90
14014;DHT22;49110;52.584;13.408;2022-12-13T03:44:07;1.40;98.80
14014;DHT22;49110;52.584;13.408;2022-12-13T03:45:08;1.40;98.80
14014;DHT22;49110;52.584;13.408;2022-12-13T03:46:09;1.40;99.00
14014;DHT22;49110;52.584;13.408;2022-12-13T03:47:09;1.50;99.20
14014;DHT22;49110;52.584;13.408;2022-12-13T03:48:10;1.50;99.10
14014;DHT22;49110;52.584;13.408;2022-12-13T03:49:10;1.50;99.00
14014;DHT22;49110;52.584;13.408;2022-12-13T03:50:11;1.50;98.90
14014;DHT22;49110;52.584;13.408;2022-12-13T03:51:11;1.50;98.90
14014;DHT22;49110;52.584;13.408;2022-12-13T03:52:12;1.50;98.90
14014;DHT22;49110;52.584;13.408;2022-12-13T03:53:12;1.50;98.90
14014;DHT22;49110;52.584;13.408;2022-12-13T03:54:13;1.50;98.90
14014;DHT22;49110;52.584;13.408;2022-12-13T03:55:13;1.50;98.90
14014;DHT22;49110;52.584;13.408;2022-12-13T03:56:14;1.40;98.80
14014;DHT22;49110;52.584;13.408;2022-12-13T03:57:14;1.40;99.00
14014;DHT22;49110;52.584;13.408;2022-12-13T03:58:15;1.40;99.10
14014;DHT22;49110;52.584;13.408;2022-12-13T03:59:16;1.40;99.10
14014;DHT22;49110;52.584;13.408;2022-12-13T04:00:16;1.40;99.00
14014;DHT22;49110;52.584;13.408;2022-12-13T04:01:17;1.40;99.00
14014;DHT22;49110;52.584;13.408;2022-12-13T04:02:17;1.50;99.00
14014;DHT22;49110;52.584;13.408;2022-12-13T04:03:18;1.50;98.90
14014;DHT22;49110;52.584;13.408;2022-12-13T04:04:18;1.50;98.90
14014;DHT22;49110;52.584;13.408;2022-12-13T04:05:19;1.50;98.90
14014;DHT22;49110;52.584;13.408;2022-12-13T04:06:19;1.50;98.80
14014;DHT22;49110;52.584;13.408;2022-12-13T04:07:20;1.50;98.80
14014;DHT22;49110;52.584;13.408;2022-12-13T04:08:20;1.50;98.60
14014;DHT22;49110;52.584;13.408;2022-12-13T04:09:21;1.50;98.70
14014;DHT22;49110;52.584;13.408;2022-12-13T04:10:21;1.50;98.90
14014;DHT22;49110;52.584;13.408;2022-12-13T04:11:21;1.60;98.90
14014;DHT22;49110;52.584;13.408;2022-12-13T04:12:41;1.50;98.90
14014;DHT22;49110;52.584;13.408;2022-12-13T04:13:59;1.50;98.70
14014;DHT22;49110;52.584;13.408;2022-12-13T04:15:00;1.50;98.90
14014;DHT22;49110;52.584;13.408;2022-12-13T04:16:01;1.50;98.90
14014;DHT22;49110;52.584;13.408;2022-12-13T04:17:02;1.50;98.90
14014;DHT22;49110;52.584;13.408;2022-12-13T04:18:03;1.50;98.70
14014;DHT22;49110;52.584;13.408;2022-12-13T04:19:03;1.50;98.90
14014;DHT22;49110;52.584;13.408;2022-12-13T04:20:04;1.60;98.90
14014;DHT22;49110;52.584;13.408;2022-12-13T04:21:05;1.50;98.90
14014;DHT22;49110;52.584;13.408;2022-12-13T04:22:05;1.50;98.60
14014;DHT22;49110;52.584;13.408;2022-12-13T04:23:06;1.50;98.70
14014;DHT22;49110;52.584;13.408;2022-12-13T04:24:06;1.50;98.90
14014;DHT22;49110;52.584;13.408;2022-12-13T04:25:07;1.50;98.90
14014;DHT22;49110;52.584;13.408;2022-12-13T04:26:07;1.50;98.90
14014;DHT22;49110;52.584;13.408;2022-12-13T04:27:08;1.50;99.20
14014;DHT22;49110;52.584;13.408;2022-12-13T04:28:08;1.60;98.90
14014;DHT22;49110;52.584;13.408;2022-12-13T04:29:09;1.50;98.80
14014;DHT22;49110;52.584;13.408;2022-12-13T04:30:10;1.50;98.90
14014;DHT22;49110;52.584;13.408;2022-12-13T04:31:10;1.50;98.70
14014;DHT22;49110;52.584;13.408;2022-12-13T04:32:11;1.50;98.70
14014;DHT22;49110;52.584;13.408;2022-12-13T04:33:11;1.50;98.80
14014;DHT22;49110;52.584;13.408;2022-12-13T04:34:12;1.50;98.90
14014;DHT22;49110;52.584;13.408;2022-12-13T04:35:12;1.50;98.90
14014;DHT22;49110;52.584;13.408;2022-12-13T04:36:13;1.50;98.90
14014;DHT22;49110;52.584;13.408;2022-12-13T04:37:19;1.50;98.80
14014;DHT22;49110;52.584;13.408;2022-12-13T04:38:19;1.50;98.90
14014;DHT22;49110;52.584;13.408;2022-12-13T04:39:20;1.50;98.60
14014;DHT22;49110;52.584;13.408;2022-12-13T04:40:20;1.50;98.60
14014;DHT22;49110;52.584;13.408;2022-12-13T04:41:21;1.50;98.80
14014;DHT22;49110;52.584;13.408;2022-12-13T04:42:21;1.50;98.80
14014;DHT22;49110;52.584;13.408;2022-12-13T04:43:22;1.50;98.70
14014;DHT22;49110;52.584;13.408;2022-12-13T04:44:22;1.50;98.70
14014;DHT22;49110;52.584;13.408;2022-12-13T04:45:23;1.60;98.70
14014;DHT22;49110;52.584;13.408;2022-12-13T04:46:23;1.60;98.60
14014;DHT22;49110;52.584;13.408;2022-12-13T04:47:24;1.60;98.60
14014;DHT22;49110;52.584;13.408;2022-12-13T04:48:24;1.50;98.60
14014;DHT22;49110;52.584;13.408;2022-12-13T04:49:25;1.50;98.60
14014;DHT22;49110;52.584;13.408;2022-12-13T04:50:25;1.60;98.50
14014;DHT22;49110;52.584;13.408;2022-12-13T04:51:26;1.50;98.50
14014;DHT22;49110;52.584;13.408;2022-12-13T04:52:27;1.50;98.50
14014;DHT22;49110;52.584;13.408;2022-12-13T04:53:29;1.50;98.50
14014;DHT22;49110;52.584;13.408;2022-12-13T04:54:30;1.60;98.60
14014;DHT22;49110;52.584;13.408;2022-12-13T04:55:31;1.60;98.40
14014;DHT22;49110;52.584;13.408;2022-12-13T04:56:32;1.50;98.10
14014;DHT22;49110;52.584;13.408;2022-12-13T04:57:33;1.50;98.20
14014;DHT22;49110;52.584;13.408;2022-12-13T04:58:33;1.50;98.30
14014;DHT22;49110;52.584;13.408;2022-12-13T04:59:35;1.50;98.30
14014;DHT22;49110;52.584;13.408;2022-12-13T05:00:35;1.50;98.20
14014;DHT22;49110;52.584;13.408;2022-12-13T05:01:36;1.50;98.30
14014;DHT22;49110;52.584;13.408;2022-12-13T05:02:36;1.50;98.30
14014;DHT22;49110;52.584;13.408;2022-12-13T05:03:37;1.60;98.40
14014;DHT22;49110;52.584;13.408;2022-12-13T05:04:38;1.60;98.40
14014;DHT22;49110;52.584;13.408;2022-12-13T05:05:39;1.60;98.20
14014;DHT22;49110;52.584;13.408;2022-12-13T05:06:40;1.60;98.20
14014;DHT22;49110;52.584;13.408;2022-12-13T05:07:40;1.60;98.20
14014;DHT22;49110;52.584;13.408;2022-12-13T05:08:41;1.60;98.20
14014;DHT22;49110;52.584;13.408;2022-12-13T05:09:42;1.60;98.30
14014;DHT22;49110;52.584;13.408;2022-12-13T05:10:42;1.60;98.10
14014;DHT22;49110;52.584;13.408;2022-12-13T05:11:43;1.60;98.20
14014;DHT22;49110;52.584;13.408;2022-12-13T05:12:43;1.60;98.20
14014;DHT22;49110;52.584;13.408;2022-12-13T05:13:44;1.50;98.10
14014;DHT22;49110;52.584;13.408;2022-12-13T05:14:44;1.50;98.10
14014;DHT22;49110;52.584;13.408;2022-12-13T05:15:44;1.50;98.00
14014;DHT22;49110;52.584;13.408;2022-12-13T05:16:45;1.50;98.10
14014;DHT22;49110;52.584;13.408;2022-12-13T05:17:45;1.50;98.20
14014;DHT22;49110;52.584;13.408;2022-12-13T05:18:46;1.50;98.30
14014;DHT22;49110;52.584;13.408;2022-12-13T05:19:46;1.50;98.30
14014;DHT22;49110;52.584;13.408;2022-12-13T05:20:47;1.50;98.00
14014;DHT22;49110;52.584;13.408;2022-12-13T05:21:48;1.50;98.10
14014;DHT22;49110;52.584;13.408;2022-12-13T05:22:48;1.50;98.20
14014;DHT22;49110;52.584;13.408;2022-12-13T05:23:49;1.50;98.10
14014;DHT22;49110;52.584;13.408;2022-12-13T05:24:49;1.50;98.00
14014;DHT22;49110;52.584;13.408;2022-12-13T05:25:50;1.50;98.00
14014;DHT22;49110;52.584;13.408;2022-12-13T05:26:51;1.50;98.20
14014;DHT22;49110;52.584;13.408;2022-12-13T05:27:52;1.50;98.30
14014;DHT22;49110;52.584;13.408;2022-12-13T05:28:55;1.60;98.40
14014;DHT22;49110;52.584;13.408;2022-12-13T05:29:55;1.50;98.00
14014;DHT22;49110;52.584;13.408;2022-12-13T05:30:58;1.50;98.00
14014;DHT22;49110;52.584;13.408;2022-12-13T05:31:59;1.50;98.00
14014;DHT22;49110;52.584;13.408;2022-12-13T05:32:59;1.50;97.90
14014;DHT22;49110;52.584;13.408;2022-12-13T05:34:00;1.50;97.90
14014;DHT22;49110;52.584;13.408;2022-12-13T05:35:01;1.50;97.90
14014;DHT22;49110;52.584;13.408;2022-12-13T05:36:02;1.50;98.20
14014;DHT22;49110;52.584;13.408;2022-12-13T05:37:03;1.50;97.90
14014;DHT22;49110;52.584;13.408;2022-12-13T05:38:03;1.50;97.80
14014;DHT22;49110;52.584;13.408;2022-12-13T05:39:04;1.50;97.70
14014;DHT22;49110;52.584;13.408;2022-12-13T05:40:05;1.50;97.80
14014;DHT22;49110;52.584;13.408;2022-12-13T05:41:06;1.60;97.90
14014;DHT22;49110;52.584;13.408;2022-12-13T05:42:06;1.50;97.70
14014;DHT22;49110;52.584;13.408;2022-12-13T05:43:10;1.60;97.90
14014;DHT22;49110;52.584;13.408;2022-12-13T05:44:11;1.50;97.80
14014;DHT22;49110;52.584;13.408;2022-12-13T05:45:13;1.50;97.60
14014;DHT22;49110;52.584;13.408;2022-12-13T05:46:15;1.50;97.70
14014;DHT22;49110;52.584;13.408;2022-12-13T05:47:15;1.50;97.50
14014;DHT22;49110;52.584;13.408;2022-12-13T05:48:16;1.50;97.50
14014;DHT22;49110;52.584;13.408;2022-12-13T05:49:16;1.50;97.60
14014;DHT22;49110;52.584;13.408;2022-12-13T05:50:17;1.60;97.70
14014;DHT22;49110;52.584;13.408;2022-12-13T05:51:17;1.50;97.60
14014;DHT22;49110;52.584;13.408;2022-12-13T05:52:19;1.60;97.60
14014;DHT22;49110;52.584;13.408;2022-12-13T05:53:20;1.60;97.60
14014;DHT22;49110;52.584;13.408;2022-12-13T05:54:20;1.60;97.50
14014;DHT22;49110;52.584;13.408;2022-12-13T05:55:21;1.60;97.60
14014;DHT22;49110;52.584;13.408;2022-12-13T05:56:21;1.60;97.60
14014;DHT22;49110;52.584;13.408;2022-12-13T05:57:22;1.60;97.50
14014;DHT22;49110;52.584;13.408;2022-12-13T05:58:22;1.60;97.50
14014;DHT22;49110;52.584;13.408;2022-12-13T05:59:23;1.60;97.40
14014;DHT22;49110;52.584;13.408;2022-12-13T06:00:27;1.50;97.30
14014;DHT22;49110;52.584;13.408;2022-12-13T06:01:28;1.50;97.40
14014;DHT22;49110;52.584;13.408;2022-12-13T06:02:28;1.50;97.50
14014;DHT22;49110;52.584;13.408;2022-12-13T06:03:29;1.40;97.20
14014;DHT22;49110;52.584;13.408;2022-12-13T06:04:30;1.50;97.50
14014;DHT22;49110;52.584;13.408;2022-12-13T06:05:30;1.50;97.50
14014;DHT22;49110;52.584;13.408;2022-12-13T06:06:31;1.50;97.50
14014;DHT22;49110;52.584;13.408;2022-12-13T06:07:32;1.50;97.50
14014;DHT22;49110;52.584;13.408;2022-12-13T06:08:32;1.50;97.60
14014;DHT22;49110;52.584;13.408;2022-12-13T06:09:33;1.60;97.50
14014;DHT22;49110;52.584;13.408;2022-12-13T06:10:33;1.50;97.40
14014;DHT22;49110;52.584;13.408;2022-12-13T06:11:34;1.50;97.50
14014;DHT22;49110;52.584;13.408;2022-12-13T06:12:35;1.60;97.60
14014;DHT22;49110;52.584;13.408;2022-12-13T06:13:36;1.50;97.20
14014;DHT22;49110;52.584;13.408;2022-12-13T06:14:37;1.40;97.20
14014;DHT22;49110;52.584;13.408;2022-12-13T06:15:37;1.50;97.40
14014;DHT22;49110;52.584;13.408;2022-12-13T06:16:38;1.50;97.60
14014;DHT22;49110;52.584;13.408;2022-12-13T06:17:38;1.50;98.00
14014;DHT22;49110;52.584;13.408;2022-12-13T06:18:39;1.60;97.70
14014;DHT22;49110;52.584;13.408;2022-12-13T06:19:39;1.60;97.70
14014;DHT22;49110;52.584;13.408;2022-12-13T06:20:40;1.50;97.60
14014;DHT22;49110;52.584;13.408;2022-12-13T06:21:40;1.60;97.50
14014;DHT22;49110;52.584;13.408;2022-12-13T06:22:41;1.60;97.20
14014;DHT22;49110;52.584;13.408;2022-12-13T06:23:41;1.50;97.40
14014;DHT22;49110;52.584;13.408;2022-12-13T06:24:42;1.60;97.50
14014;DHT22;49110;52.584;13.408;2022-12-13T06:25:42;1.60;97.40
14014;DHT22;49110;52.584;13.408;2022-12-13T06:26:43;1.60;97.30
14014;DHT22;49110;52.584;13.408;2022-12-13T06:27:44;1.50;97.30
14014;DHT22;49110;52.584;13.408;2022-12-13T06:28:44;1.50;97.40
14014;DHT22;49110;52.584;13.408;2022-12-13T06:29:45;1.50;97.50
14014;DHT22;49110;52.584;13.408;2022-12-13T06:30:45;1.50;97.40
14014;DHT22;49110;52.584;13.408;2022-12-13T06:31:46;1.50;97.40
14014;DHT22;49110;52.584;13.408;2022-12-13T06:32:48;1.50;97.40
14014;DHT22;49110;52.584;13.408;2022-12-13T06:33:49;1.60;97.50
14014;DHT22;49110;52.584;13.408;2022-12-13T06:34:49;1.50;97.10
14014;DHT22;49110;52.584;13.408;2022-12-13T06:35:50;1.50;97.40
14014;DHT22;49110;52.584;13.408;2022-12-13T06:36:52;1.50;97.30
14014;DHT22;49110;52.584;13.408;2022-12-13T06:37:52;1.40;97.20
14014;DHT22;49110;52.584;13.408;2022-12-13T06:38:53;1.50;97.30
14014;DHT22;49110;52.584;13.408;2022-12-13T06:39:53;1.40;97.40
14014;DHT22;49110;52.584;13.408;2022-12-13T06:40:54;1.50;97.60
14014;DHT22;49110;52.584;13.408;2022-12-13T06:41:55;1.50;97.50
14014;DHT22;49110;52.584;13.408;2022-12-13T06:42:55;1.40;97.20
14014;DHT22;49110;52.584;13.408;2022-12-13T06:43:56;1.40;97.30
14014;DHT22;49110;52.584;13.408;2022-12-13T06:44:57;1.50;97.40
14014;DHT22;49110;52.584;13.408;2022-12-13T06:45:58;1.50;97.30
14014;DHT22;49110;52.584;13.408;2022-12-13T06:46:59;1.50;97.00
14014;DHT22;49110;52.584;13.408;2022-12-13T06:48:00;1.40;97.10
14014;DHT22;49110;52.584;13.408;2022-12-13T06:49:00;1.50;97.20
14014;DHT22;49110;52.584;13.408;2022-12-13T06:50:01;1.50;97.20
14014;DHT22;49110;52.584;13.408;2022-12-13T06:51:03;1.50;97.20
14014;DHT22;49110;52.584;13.408;2022-12-13T06:52:04;1.40;97.10
14014;DHT22;49110;52.584;13.408;2022-12-13T06:53:04;1.40;97.30
14014;DHT22;49110;52.584;13.408;2022-12-13T06:54:05;1.40;97.50
14014;DHT22;49110;52.584;13.408;2022-12-13T06:55:06;1.40;97.30
14014;DHT22;49110;52.584;13.408;2022-12-13T06:56:09;1.40;97.30